Terminal Aerodrome Forecast
Issued by NWS

Home | Current Version | Previous Version | Text Only | Print | Product List | Glossary On
Versions: 1 2 3 4 5 6 7 8 9 10 11 12 13 14
000
FTUS44 KMAF 282323 AAA
TAFFST
TAF AMD
KFST 282323Z 2823/2924 17008KT P6SM SCT060 OVC130
      TEMPO 2900/2904 VRB25G35KT 6SM TSRA BKN050CB
     FM290400 13005KT P6SM FEW050 OVC120
     FM291200 09007KT P6SM OVC030=

USA.gov is the U.S. government's official web portal to all federal, state and local government web resources and services.